Time;durP1;ratioP1;P1;durP2;ratioP2;P2;SDS_P1;SDS_P2;PMS_P1;PMS_P2;Temp;Humidity;BMP_temperature;BMP_pressure;BME280_temperature;BME280_humidity;BME280_pressure;Samples;Min_cycle;Max_cycle;Signal;HPM_P1;HPM_P2
2021/06/22 00:03:22;;;;;;;1.87;1.10;;;22.30;38.50;;;;;;10388930;28;20240;-81
2021/06/22 00:08:26;;;;;;;1.90;1.10;;;22.30;37.50;;;;;;10386549;28;20605;-81
2021/06/22 00:13:40;;;;;;;2.17;1.40;;;22.30;37.50;;;;;;10377794;28;20241;-80
2021/06/22 00:18:44;;;;;;;2.20;1.40;;;22.40;38.60;;;;;;10379352;28;20233;-80
2021/06/22 00:23:47;;;;;;;1.50;1.17;;;22.40;37.60;;;;;;10395523;28;20226;-80
2021/06/22 00:28:51;;;;;;;1.57;1.10;;;22.40;37.40;;;;;;10392587;28;20229;-81
2021/06/22 00:33:54;;;;;;;1.17;1.03;;;22.30;38.10;;;;;;10398016;28;20221;-80
2021/06/22 00:38:58;;;;;;;1.40;1.30;;;22.30;37.40;;;;;;10401247;28;20236;-80
2021/06/22 00:44:06;;;;;;;1.00;0.90;;;22.30;37.60;;;;;;10395428;28;20236;-80
2021/06/22 00:49:09;;;;;;;1.43;1.20;;;22.20;38.40;;;;;;10392056;28;20222;-81
2021/06/22 00:54:12;;;;;;;4.70;1.27;;;22.10;37.60;;;;;;10391546;28;20225;-81
2021/06/22 00:59:17;;;;;;;1.90;1.23;;;22.10;38.30;;;;;;10396037;28;20218;-81
2021/06/22 01:04:20;;;;;;;1.30;1.20;;;22.00;38.30;;;;;;10401291;28;20610;-80
2021/06/22 01:09:24;;;;;;;1.80;1.33;;;21.90;38.10;;;;;;10391222;28;20233;-80
2021/06/22 01:14:29;;;;;;;2.03;1.33;;;21.80;38.10;;;;;;10394991;28;20635;-80
2021/06/22 01:19:34;;;;;;;1.83;1.50;;;21.60;38.80;;;;;;10411401;28;20242;-82
2021/06/22 01:24:39;;;;;;;1.53;1.20;;;21.40;38.10;;;;;;10407467;28;20241;-80
2021/06/22 01:29:43;;;;;;;1.43;1.20;;;21.30;39.40;;;;;;10406353;28;20226;-81
2021/06/22 01:34:47;;;;;;;1.60;1.33;;;21.10;38.80;;;;;;10407670;28;20225;-80
2021/06/22 01:39:52;;;;;;;2.27;1.60;;;21.00;39.00;;;;;;10396010;28;20296;-81
2021/06/22 01:44:56;;;;;;;1.67;1.57;;;20.90;40.10;;;;;;10411828;28;20233;-81
2021/06/22 01:50:02;;;;;;;2.40;1.50;;;20.90;39.60;;;;;;10404422;28;20226;-81
2021/06/22 02:00:29;;;;;;;2.97;1.60;;;20.70;41.10;;;;;;10379521;28;20243;-81
2021/06/22 02:05:32;;;;;;;1.40;1.30;;;20.80;40.10;;;;;;10392190;28;20234;-81
2021/06/22 02:10:37;;;;;;;1.50;1.40;;;20.80;39.90;;;;;;10388450;28;20606;-80
2021/06/22 02:15:42;;;;;;;2.50;1.50;;;20.80;40.70;;;;;;10386716;28;20233;-81
2021/06/22 02:20:45;;;;;;;2.37;1.60;;;20.90;40.70;;;;;;10400808;28;20768;-81
2021/06/22 02:25:50;;;;;;;3.10;1.30;;;21.00;40.20;;;;;;10403356;28;20236;-82
2021/06/22 02:30:56;;;;;;;4.33;1.70;;;21.10;40.70;;;;;;10394152;28;20241;-83
2021/06/22 02:35:59;;;;;;;1.93;1.60;;;21.20;41.30;;;;;;10395985;28;20253;-82
2021/06/22 02:41:04;;;;;;;1.53;1.43;;;21.30;40.20;;;;;;10402742;28;20229;-80
2021/06/22 02:46:07;;;;;;;2.90;1.50;;;21.30;40.50;;;;;;10400086;28;20230;-81
2021/06/22 02:51:11;;;;;;;1.47;1.37;;;21.30;39.80;;;;;;10396123;28;20268;-81
2021/06/22 02:56:15;;;;;;;5.13;1.87;;;21.30;39.90;;;;;;10397600;28;20229;-81
2021/06/22 03:01:18;;;;;;;1.93;1.50;;;21.40;40.50;;;;;;10404075;28;20228;-81
2021/06/22 03:06:22;;;;;;;2.80;1.97;;;21.40;39.80;;;;;;10408682;28;20375;-81
2021/06/22 03:11:26;;;;;;;2.83;2.00;;;21.40;40.00;;;;;;10410267;28;20616;-81
2021/06/22 03:16:30;;;;;;;3.53;2.10;;;21.40;40.60;;;;;;10396795;28;20234;-81
2021/06/22 03:21:33;;;;;;;5.13;1.90;;;21.50;40.10;;;;;;10399418;28;20237;-81
2021/06/22 03:26:38;;;;;;;2.03;1.50;;;21.50;40.00;;;;;;10402999;28;20241;-83
2021/06/22 03:31:41;;;;;;;3.20;1.40;;;21.40;40.20;;;;;;10396153;28;20737;-81
2021/06/22 03:36:45;;;;;;;3.47;1.80;;;21.50;40.10;;;;;;10388110;28;20242;-81
2021/06/22 03:41:49;;;;;;;2.63;1.67;;;21.50;40.20;;;;;;10402489;28;20221;-81
2021/06/22 03:46:52;;;;;;;2.90;1.90;;;21.50;40.70;;;;;;10395044;28;20268;-81
2021/06/22 03:51:56;;;;;;;3.60;1.90;;;21.40;40.10;;;;;;10396900;28;20241;-81
2021/06/22 03:57:01;;;;;;;4.70;2.30;;;21.40;40.30;;;;;;10401506;28;20717;-81
2021/06/22 04:02:04;;;;;;;3.00;2.20;;;21.20;41.00;;;;;;10375759;28;20224;-81
2021/06/22 04:07:07;;;;;;;3.10;2.20;;;21.30;40.60;;;;;;10392742;28;20231;-81
2021/06/22 04:12:12;;;;;;;2.47;2.10;;;21.20;40.70;;;;;;10393858;28;20233;-81
2021/06/22 04:17:16;;;;;;;2.67;2.03;;;21.10;41.60;;;;;;10389318;28;20233;-80
2021/06/22 04:22:19;;;;;;;2.83;2.30;;;21.10;41.30;;;;;;10382610;28;20249;-81
2021/06/22 04:27:24;;;;;;;2.30;2.10;;;21.10;41.50;;;;;;10386695;28;20229;-83
2021/06/22 04:32:27;;;;;;;3.03;2.37;;;21.10;42.30;;;;;;10381647;28;20263;-81
2021/06/22 04:37:30;;;;;;;4.10;2.50;;;21.10;41.70;;;;;;10390283;28;20658;-84
2021/06/22 04:42:35;;;;;;;4.40;2.50;;;21.20;41.90;;;;;;10384650;28;20245;-77
2021/06/22 04:47:38;;;;;;;4.30;2.33;;;21.30;42.60;;;;;;10391171;28;20234;-79
2021/06/22 04:52:42;;;;;;;3.00;2.10;;;21.30;41.90;;;;;;10384247;28;20233;-79
2021/06/22 04:57:47;;;;;;;2.30;2.10;;;21.40;42.00;;;;;;10393138;28;20632;-81
2021/06/22 05:02:50;;;;;;;3.67;2.37;;;21.40;42.90;;;;;;10397377;28;20241;-81
2021/06/22 05:07:54;;;;;;;5.40;2.40;;;21.50;42.10;;;;;;10399498;28;20229;-79
2021/06/22 05:12:58;;;;;;;3.80;2.47;;;21.50;42.00;;;;;;10403081;28;20716;-79
2021/06/22 05:18:02;;;;;;;2.63;2.40;;;21.60;42.70;;;;;;10403782;28;20328;-79
2021/06/22 05:23:08;;;;;;;2.87;2.27;;;21.60;42.10;;;;;;10403850;28;20257;-79
2021/06/22 05:28:13;;;;;;;3.77;2.20;;;21.70;42.10;;;;;;10396998;28;20257;-78
2021/06/22 05:33:16;;;;;;;2.90;2.40;;;21.70;42.90;;;;;;10411690;28;20230;-84
2021/06/22 05:38:20;;;;;;;2.30;2.20;;;21.80;42.30;;;;;;10408781;28;20225;-85
2021/06/22 05:43:24;;;;;;;4.73;2.43;;;21.90;42.50;;;;;;10403993;28;20260;-85
2021/06/22 05:48:28;;;;;;;2.87;2.53;;;21.90;43.20;;;;;;10404442;28;20229;-83
2021/06/22 05:53:31;;;;;;;4.33;2.50;;;22.00;42.70;;;;;;10395434;28;20664;-80
2021/06/22 05:58:36;;;;;;;4.13;2.90;;;22.10;42.70;;;;;;10395509;28;20603;-82
2021/06/22 06:03:39;;;;;;;3.50;2.60;;;22.30;43.00;;;;;;10399123;28;20613;-83
2021/06/22 06:08:42;;;;;;;3.17;2.17;;;22.30;42.40;;;;;;10402336;28;20257;-83
2021/06/22 06:13:47;;;;;;;2.73;2.53;;;22.40;42.50;;;;;;10398970;28;20240;-82
2021/06/22 06:18:50;;;;;;;3.60;2.47;;;22.40;43.20;;;;;;10403903;28;20222;-82
2021/06/22 06:23:56;;;;;;;2.80;2.60;;;22.50;42.90;;;;;;10392899;28;20226;-82
2021/06/22 06:29:06;;;;;;;2.90;2.70;;;22.60;43.10;;;;;;10403355;28;20725;-82
2021/06/22 06:34:10;;;;;;;2.70;2.50;;;22.70;43.40;;;;;;10406049;28;20696;-83
2021/06/22 06:39:13;;;;;;;2.83;2.30;;;22.80;42.80;;;;;;10403503;28;20228;-83
2021/06/22 06:44:18;;;;;;;2.63;2.43;;;22.80;42.60;;;;;;10406228;28;20247;-84
2021/06/22 06:49:22;;;;;;;3.47;2.57;;;22.80;42.90;;;;;;10393989;28;20246;-85
2021/06/22 06:54:27;;;;;;;2.47;2.20;;;22.90;42.90;;;;;;10396950;28;20325;-87
2021/06/22 06:59:31;;;;;;;3.17;2.87;;;22.90;42.60;;;;;;10396429;28;20241;-89
2021/06/22 07:04:35;;;;;;;3.33;2.83;;;23.00;43.50;;;;;;10404918;28;20234;-86
2021/06/22 07:09:38;;;;;;;2.70;2.50;;;23.10;43.10;;;;;;10395540;28;20246;-87
2021/06/22 07:14:43;;;;;;;3.27;2.47;;;23.10;43.10;;;;;;10400306;28;20667;-87
2021/06/22 07:19:46;;;;;;;2.40;2.30;;;23.30;44.00;;;;;;10402725;28;20221;-87
2021/06/22 07:24:49;;;;;;;2.20;2.00;;;23.40;43.60;;;;;;10394300;28;20234;-87
2021/06/22 07:29:54;;;;;;;2.63;2.00;;;23.60;43.50;;;;;;10398613;28;20252;-87
2021/06/22 07:34:57;;;;;;;2.03;1.80;;;23.70;42.90;;;;;;10400556;28;20235;-88
2021/06/22 07:40:00;;;;;;;3.97;1.93;;;23.80;42.60;;;;;;10398047;28;20743;-88
2021/06/22 07:45:07;;;;;;;3.17;2.00;;;23.90;42.80;;;;;;10397128;28;20599;-88
2021/06/22 07:50:14;;;;;;;2.73;1.60;;;24.10;43.10;;;;;;10399286;28;20232;-89
2021/06/22 07:55:17;;;;;;;1.57;1.47;;;24.30;42.40;;;;;;10398699;28;20288;-88
2021/06/22 08:05:52;;;;;;;1.77;1.50;;;24.70;41.20;;;;;;10394690;28;20241;-89
2021/06/22 08:10:56;;;;;;;3.03;1.77;;;24.90;40.80;;;;;;10403031;28;22100;-88
2021/06/22 08:16:02;;;;;;;2.17;1.97;;;25.00;40.90;;;;;;10388442;28;20597;-89
2021/06/22 08:21:06;;;;;;;1.97;1.40;;;25.20;41.00;;;;;;10399541;28;20225;-88
2021/06/22 08:26:10;;;;;;;1.83;1.70;;;25.40;40.50;;;;;;10391101;28;20244;-88
2021/06/22 08:31:16;;;;;;;1.90;1.63;;;25.60;40.10;;;;;;10398001;28;20256;-90
2021/06/22 08:36:19;;;;;;;2.47;1.47;;;25.80;39.70;;;;;;10393289;28;20229;-89
2021/06/22 08:41:27;;;;;;;1.77;1.40;;;26.00;40.00;;;;;;10394359;28;20256;-84
2021/06/22 08:46:32;;;;;;;1.77;1.30;;;26.30;38.90;;;;;;10393052;28;20234;-89
2021/06/22 08:51:37;;;;;;;1.30;1.20;;;26.50;38.50;;;;;;10393006;28;20284;-88
2021/06/22 08:56:44;;;;;;;2.50;1.50;;;26.80;38.50;;;;;;10398399;28;20234;-88
2021/06/22 09:01:49;;;;;;;1.70;1.60;;;27.10;38.60;;;;;;10395014;28;20236;-87
2021/06/22 09:06:54;;;;;;;1.40;1.40;;;27.30;36.70;;;;;;10396186;28;20229;-89
2021/06/22 09:12:08;;;;;;;1.50;1.40;;;27.50;37.20;;;;;;10397997;28;20726;-87
2021/06/22 09:17:12;;;;;;;2.07;1.67;;;27.70;36.40;;;;;;10394969;28;20226;-88
2021/06/22 09:22:17;;;;;;;2.17;1.40;;;27.90;36.40;;;;;;10396634;28;20786;-88
2021/06/22 09:27:50;;;;;;;2.27;1.50;;;28.00;36.10;;;;;;10393274;28;20729;-90
2021/06/22 09:32:55;;;;;;;2.43;1.50;;;28.20;35.80;;;;;;10384155;28;20244;-88
2021/06/22 09:37:58;;;;;;;1.67;1.57;;;28.40;35.50;;;;;;10398056;28;20227;-88
2021/06/22 09:43:01;;;;;;;2.23;1.90;;;28.50;35.10;;;;;;10405538;28;20271;-80
2021/06/22 09:48:08;;;;;;;2.03;1.80;;;28.70;34.80;;;;;;10403541;28;20230;-81
2021/06/22 09:53:29;;;;;;;1.83;1.70;;;28.80;34.00;;;;;;10395832;28;20252;-82
2021/06/22 09:58:36;;;;;;;1.77;1.67;;;28.90;33.90;;;;;;10403826;28;20261;-81
2021/06/22 10:03:41;;;;;;;2.10;1.90;;;28.90;33.60;;;;;;10395569;28;20239;-81
2021/06/22 10:14:54;;;;;;;2.67;1.83;;;29.00;33.90;;;;;;10358589;28;20233;-88
2021/06/22 10:20:01;;;;;;;3.10;2.07;;;29.10;33.20;;;;;;10417030;28;20248;-88
2021/06/22 10:25:09;;;;;;;2.00;1.90;;;29.10;32.80;;;;;;10391745;28;20230;-88
2021/06/22 10:30:13;;;;;;;2.17;2.00;;;29.10;32.80;;;;;;10396821;28;20226;-88
2021/06/22 10:35:18;;;;;;;2.40;2.20;;;29.20;33.40;;;;;;10376517;28;20312;-88
2021/06/22 10:40:25;;;;;;;2.27;2.10;;;29.30;32.80;;;;;;10405527;28;20260;-89
2021/06/22 10:45:28;;;;;;;2.17;2.00;;;29.40;32.20;;;;;;10398557;28;20238;-80
2021/06/22 10:50:33;;;;;;;1.70;1.60;;;29.40;33.10;;;;;;10402254;28;20241;-79
2021/06/22 10:56:17;;;;;;;2.97;1.90;;;29.50;31.90;;;;;;10397513;28;20307;-79
2021/06/22 11:01:21;;;;;;;3.37;2.20;;;29.50;32.30;;;;;;10398012;28;20249;-85
2021/06/22 11:06:28;;;;;;;3.07;2.40;;;29.60;32.50;;;;;;10405072;28;20646;-86
2021/06/22 11:11:31;;;;;;;2.73;2.43;;;29.70;31.30;;;;;;10392233;28;20233;-86
2021/06/22 11:16:35;;;;;;;2.93;2.63;;;29.80;32.40;;;;;;10394365;28;20234;-78
2021/06/22 11:21:53;;;;;;;3.40;2.70;;;29.90;32.00;;;;;;10371741;28;20782;-78
2021/06/22 11:27:03;;;;;;;2.60;2.40;;;30.10;31.00;;;;;;10380298;28;20229;-78
2021/06/22 11:32:07;;;;;;;2.70;2.50;;;30.30;30.10;;;;;;10387852;28;20226;-80
2021/06/22 11:37:22;;;;;;;2.90;2.50;;;30.40;31.60;;;;;;10383185;28;20320;-78
2021/06/22 11:42:25;;;;;;;4.27;2.33;;;30.40;30.00;;;;;;10378377;28;20236;-76
2021/06/22 11:47:52;;;;;;;2.50;2.30;;;30.30;30.20;;;;;;10389640;28;20234;-79
2021/06/22 11:53:08;;;;;;;2.50;2.30;;;30.30;30.00;;;;;;10381206;28;20233;-78
2021/06/22 11:58:20;;;;;;;2.50;2.30;;;30.40;29.50;;;;;;10383602;28;20221;-75
2021/06/22 12:03:27;;;;;;;2.97;2.20;;;30.40;29.30;;;;;;10381056;28;21777;-75
2021/06/22 12:08:36;;;;;;;2.50;2.13;;;30.50;29.50;;;;;;10387159;28;20233;-75
2021/06/22 12:13:42;;;;;;;2.30;2.10;;;30.50;28.40;;;;;;10390512;28;20226;-80
2021/06/22 12:18:45;;;;;;;2.33;2.20;;;30.40;28.70;;;;;;10385618;28;20242;-75
2021/06/22 12:24:01;;;;;;;2.87;2.20;;;30.30;29.30;;;;;;10380659;28;20238;-74
2021/06/22 12:29:15;;;;;;;2.47;2.10;;;30.40;28.80;;;;;;10378742;28;20236;-78
2021/06/22 12:34:19;;;;;;;2.20;2.00;;;30.40;29.40;;;;;;10379711;28;20274;-85
2021/06/22 12:39:26;;;;;;;3.13;2.00;;;30.40;29.10;;;;;;10394102;28;20251;-79
2021/06/22 12:44:30;;;;;;;2.60;2.20;;;30.50;28.30;;;;;;10387378;28;20242;-74
2021/06/22 12:49:38;;;;;;;2.17;1.97;;;30.60;28.80;;;;;;10378138;28;20249;-78
2021/06/22 12:54:43;;;;;;;1.80;1.70;;;30.70;27.50;;;;;;10395248;28;20229;-77
2021/06/22 12:59:49;;;;;;;2.00;1.80;;;30.70;28.00;;;;;;10372792;28;20240;-79
2021/06/22 13:04:53;;;;;;;2.30;1.90;;;30.60;28.00;;;;;;10371921;28;20244;-77
2021/06/22 13:10:12;;;;;;;1.90;1.80;;;30.50;28.40;;;;;;10380861;28;20248;-84
2021/06/22 13:15:30;;;;;;;2.23;1.73;;;30.40;28.20;;;;;;10395681;28;20604;-78
2021/06/22 13:20:34;;;;;;;3.10;1.90;;;30.20;28.20;;;;;;10391319;28;20234;-77
2021/06/22 13:25:39;;;;;;;2.50;2.00;;;30.10;28.80;;;;;;10388959;28;20229;-77
2021/06/22 13:30:49;;;;;;;1.77;1.67;;;30.00;28.60;;;;;;10390981;28;20240;-77
2021/06/22 13:35:54;;;;;;;1.67;1.57;;;30.00;28.90;;;;;;10382376;28;20316;-77
2021/06/22 13:41:00;;;;;;;1.77;1.67;;;29.80;28.30;;;;;;10400660;28;20300;-84
2021/06/22 13:46:10;;;;;;;2.10;1.87;;;29.70;28.40;;;;;;10385395;28;20248;-73
2021/06/22 13:51:40;;;;;;;2.50;2.10;;;29.70;28.50;;;;;;10384523;28;20694;-82
2021/06/22 13:56:45;;;;;;;2.77;1.57;;;29.60;28.80;;;;;;10391743;28;20699;-74
2021/06/22 14:01:49;;;;;;;2.00;1.90;;;29.50;29.00;;;;;;10395957;28;20233;-75
2021/06/22 14:06:52;;;;;;;2.07;1.90;;;29.50;29.20;;;;;;10388732;28;20242;-84
2021/06/22 14:11:57;;;;;;;2.50;2.30;;;29.50;29.30;;;;;;10406142;28;20314;-83
2021/06/22 14:17:03;;;;;;;2.47;1.83;;;29.50;29.20;;;;;;10401293;28;20598;-83
2021/06/22 14:22:06;;;;;;;2.30;2.07;;;29.50;29.20;;;;;;10400186;28;20281;-78
2021/06/22 14:27:11;;;;;;;2.47;1.90;;;29.60;29.30;;;;;;10383732;28;20631;-77
2021/06/22 14:32:15;;;;;;;1.93;1.83;;;29.60;29.10;;;;;;10391501;28;20233;-79
2021/06/22 14:37:19;;;;;;;2.10;1.90;;;29.70;29.30;;;;;;10402101;28;20313;-82
2021/06/22 14:42:23;;;;;;;2.10;1.90;;;29.80;29.30;;;;;;10378893;28;20237;-82
2021/06/22 14:47:27;;;;;;;2.33;2.17;;;29.90;29.40;;;;;;10398889;28;20256;-74
2021/06/22 14:52:30;;;;;;;2.07;1.97;;;30.00;29.10;;;;;;10386615;28;20763;-74
2021/06/22 14:57:36;;;;;;;3.13;2.23;;;29.90;29.10;;;;;;10384281;28;20605;-74
2021/06/22 15:02:39;;;;;;;2.40;2.20;;;29.90;29.00;;;;;;10391021;28;20237;-81
2021/06/22 15:07:54;;;;;;;2.17;2.07;;;30.00;29.10;;;;;;10386986;28;20234;-81
2021/06/22 15:13:07;;;;;;;2.97;2.00;;;30.00;29.10;;;;;;10363583;28;20236;-75
2021/06/22 15:18:10;;;;;;;2.10;2.00;;;30.00;28.90;;;;;;10382075;28;20246;-75
2021/06/22 15:23:14;;;;;;;2.77;2.40;;;30.00;29.10;;;;;;10381859;28;20601;-76
2021/06/22 15:28:21;;;;;;;2.77;2.53;;;30.00;28.90;;;;;;10381708;28;20229;-75
2021/06/22 15:33:24;;;;;;;2.30;2.20;;;29.90;28.80;;;;;;10378911;28;20606;-76
2021/06/22 15:38:28;;;;;;;3.10;2.23;;;29.70;29.10;;;;;;10382669;28;20487;-79
2021/06/22 15:43:33;;;;;;;6.43;3.20;;;29.60;29.30;;;;;;10384720;28;20242;-78
2021/06/22 15:48:36;;;;;;;6.03;2.90;;;29.50;30.40;;;;;;10375807;28;20234;-80
2021/06/22 15:53:40;;;;;;;5.47;3.20;;;29.40;31.20;;;;;;10390663;28;20234;-81
2021/06/22 15:59:07;;;;;;;3.30;2.70;;;29.30;31.10;;;;;;10361693;28;20224;-81
2021/06/22 16:17:09;;;;;;;3.50;3.20;;;28.60;33.10;;;;;;10348262;28;20233;-80
2021/06/22 16:41:23;;;;;;;2.60;2.30;;;28.10;34.60;;;;;;10264935;28;20739;-79
2021/06/22 16:46:29;;;;;;;3.03;2.73;;;28.10;34.20;;;;;;10386094;28;20234;-76
2021/06/22 16:51:34;;;;;;;3.50;3.20;;;28.00;34.10;;;;;;10389855;28;20241;-83
2021/06/22 16:57:19;;;;;;;3.00;2.70;;;28.00;34.70;;;;;;10378560;28;20234;-76
2021/06/22 17:02:36;;;;;;;3.80;3.20;;;28.00;34.50;;;;;;10385770;28;20723;-79
2021/06/22 17:07:39;;;;;;;3.17;2.90;;;28.00;34.70;;;;;;10378350;28;20248;-77
2021/06/22 17:12:51;;;;;;;3.40;3.10;;;27.90;34.60;;;;;;10377391;28;20245;-76
2021/06/22 17:17:58;;;;;;;3.77;3.37;;;27.90;35.80;;;;;;10386049;28;20304;-76
2021/06/22 17:23:09;;;;;;;3.30;3.00;;;27.80;34.80;;;;;;10417767;28;20260;-76
2021/06/22 17:28:18;;;;;;;3.20;2.90;;;27.70;35.00;;;;;;10409168;28;20657;-76
2021/06/22 17:33:32;;;;;;;3.70;3.40;;;27.70;35.80;;;;;;10426717;28;20765;-76
2021/06/22 17:38:35;;;;;;;3.43;3.13;;;27.70;35.70;;;;;;10427784;28;20235;-75
2021/06/22 17:43:41;;;;;;;3.03;2.73;;;27.50;35.00;;;;;;10428684;28;20613;-76
2021/06/22 17:48:44;;;;;;;3.60;3.30;;;27.50;35.60;;;;;;10422237;28;20224;-75
2021/06/22 17:53:48;;;;;;;3.40;2.80;;;27.40;35.30;;;;;;10418165;28;20245;-84
2021/06/22 17:58:53;;;;;;;3.40;3.10;;;27.30;35.50;;;;;;10414290;28;20592;-84
2021/06/22 18:04:02;;;;;;;3.60;3.07;;;27.30;36.40;;;;;;10425550;28;20229;-78
2021/06/22 18:09:07;;;;;;;4.60;3.13;;;27.30;35.90;;;;;;10415920;28;20214;-80
2021/06/22 18:14:12;;;;;;;4.10;3.10;;;27.30;36.20;;;;;;10429456;28;20228;-79
2021/06/22 18:19:15;;;;;;;4.00;3.23;;;27.30;36.40;;;;;;10429331;28;20235;-80
2021/06/22 18:24:19;;;;;;;3.60;3.30;;;27.30;36.20;;;;;;10425729;28;20233;-79
2021/06/22 18:29:26;;;;;;;3.07;2.87;;;27.20;36.30;;;;;;10431191;28;21008;-79
2021/06/22 18:34:30;;;;;;;4.00;3.70;;;27.10;37.40;;;;;;10411721;28;20397;-79
2021/06/22 18:39:41;;;;;;;3.57;3.23;;;26.90;36.90;;;;;;10422341;28;20622;-78
2021/06/22 18:45:00;;;;;;;4.63;3.40;;;26.80;38.10;;;;;;10387221;28;20660;-79
2021/06/22 18:50:05;;;;;;;3.50;3.20;;;26.80;38.20;;;;;;10391666;28;20408;-79
2021/06/22 18:55:16;;;;;;;3.83;3.50;;;26.80;37.80;;;;;;10408873;28;20236;-78
2021/06/22 19:00:24;;;;;;;3.70;3.40;;;26.80;37.80;;;;;;10421770;28;20641;-79
2021/06/22 19:05:32;;;;;;;5.47;3.47;;;26.80;38.40;;;;;;10410113;28;20236;-79
2021/06/22 19:10:36;;;;;;;3.27;3.07;;;26.70;38.60;;;;;;10422281;28;20229;-79
2021/06/22 19:15:40;;;;;;;4.10;3.37;;;26.70;37.80;;;;;;10427116;28;20224;-78
2021/06/22 19:20:45;;;;;;;4.13;3.60;;;26.50;38.30;;;;;;10393203;28;20240;-79
2021/06/22 19:25:52;;;;;;;3.33;3.03;;;26.50;38.90;;;;;;10410786;28;20247;-79
2021/06/22 19:30:59;;;;;;;4.83;3.23;;;26.50;38.80;;;;;;10398648;28;20236;-79
2021/06/22 19:36:14;;;;;;;3.60;3.30;;;26.40;39.60;;;;;;10415301;28;20237;-79
2021/06/22 19:41:31;;;;;;;4.83;3.63;;;26.40;39.50;;;;;;10401225;28;20258;-87
2021/06/22 19:46:49;;;;;;;4.50;3.70;;;26.50;38.60;;;;;;10401677;28;20654;-86
2021/06/22 19:51:57;;;;;;;4.03;3.63;;;26.40;39.20;;;;;;10417807;28;20290;-86
2021/06/22 19:57:00;;;;;;;4.47;4.07;;;26.40;38.30;;;;;;10419898;28;20234;-86
2021/06/22 20:02:05;;;;;;;6.20;4.47;;;26.40;38.40;;;;;;10426207;28;20244;-85
2021/06/22 20:07:09;;;;;;;5.47;4.50;;;26.40;38.80;;;;;;10430168;28;20229;-89
2021/06/22 20:12:14;;;;;;;5.10;4.40;;;26.30;38.50;;;;;;10398984;28;20229;-85
2021/06/22 20:17:20;;;;;;;4.10;3.80;;;26.20;38.20;;;;;;10415075;28;20310;-85
2021/06/22 20:22:26;;;;;;;4.13;3.70;;;26.10;38.50;;;;;;10400637;28;20260;-86
2021/06/22 20:27:29;;;;;;;4.00;3.70;;;26.00;38.30;;;;;;10425976;28;20229;-85
2021/06/22 20:32:35;;;;;;;3.83;3.57;;;25.90;38.30;;;;;;10426186;28;20883;-85
2021/06/22 20:37:38;;;;;;;7.40;3.60;;;25.90;38.50;;;;;;10421797;28;20776;-86
2021/06/22 20:42:42;;;;;;;3.97;3.57;;;25.80;38.20;;;;;;10424118;28;20319;-78
2021/06/22 20:47:53;;;;;;;3.70;3.40;;;25.80;38.10;;;;;;10415700;28;20272;-74
2021/06/22 20:52:56;;;;;;;4.77;3.20;;;25.70;38.00;;;;;;10422520;28;20240;-75
2021/06/22 20:58:00;;;;;;;3.20;2.90;;;25.70;37.20;;;;;;10410141;28;20229;-75
2021/06/22 21:03:05;;;;;;;3.10;2.80;;;25.60;37.00;;;;;;10424059;28;20221;-75
2021/06/22 21:08:08;;;;;;;2.93;2.70;;;25.60;37.00;;;;;;10424693;28;20282;-75
2021/06/22 21:13:12;;;;;;;2.50;2.30;;;25.50;36.80;;;;;;10424548;28;20225;-74
2021/06/22 21:18:17;;;;;;;2.73;2.53;;;25.40;36.90;;;;;;10423764;28;20224;-75
2021/06/22 21:23:20;;;;;;;4.07;2.40;;;25.40;37.10;;;;;;10411765;28;20578;-75
2021/06/22 21:28:23;;;;;;;3.83;2.70;;;25.30;36.90;;;;;;10413075;28;20234;-75
2021/06/22 21:33:28;;;;;;;3.27;2.70;;;25.30;37.00;;;;;;10396041;28;20335;-74
2021/06/22 21:38:33;;;;;;;3.00;2.80;;;25.20;37.30;;;;;;10425188;28;20759;-84
2021/06/22 21:43:37;;;;;;;2.77;2.50;;;25.10;37.30;;;;;;10424051;28;20243;-84
2021/06/22 21:48:41;;;;;;;3.63;2.50;;;25.10;37.50;;;;;;10429593;28;20725;-85
2021/06/22 21:53:48;;;;;;;3.27;2.97;;;25.10;37.50;;;;;;10427672;28;20240;-85
2021/06/22 21:58:51;;;;;;;3.37;3.17;;;25.10;37.60;;;;;;10425408;28;20239;-83
2021/06/22 22:03:55;;;;;;;3.43;3.13;;;24.90;37.20;;;;;;10426810;28;20343;-84
2021/06/22 22:08:59;;;;;;;3.20;3.00;;;24.70;37.60;;;;;;10427269;28;20237;-85
2021/06/22 22:14:02;;;;;;;3.27;3.07;;;24.60;37.70;;;;;;10424152;28;20583;-83
2021/06/22 22:19:13;;;;;;;3.30;3.00;;;24.40;38.10;;;;;;10429925;28;20236;-84
2021/06/22 22:24:16;;;;;;;3.27;2.80;;;24.20;39.30;;;;;;10425624;28;20245;-84
2021/06/22 22:29:20;;;;;;;3.20;3.00;;;24.10;38.60;;;;;;10428559;28;20221;-84
2021/06/22 22:34:24;;;;;;;3.20;3.00;;;24.00;38.80;;;;;;10400536;28;20669;-84
2021/06/22 22:39:27;;;;;;;2.63;2.43;;;23.90;39.20;;;;;;10419157;28;20585;-85
2021/06/22 22:44:30;;;;;;;3.23;3.03;;;23.90;39.00;;;;;;10425161;28;20727;-84
2021/06/22 22:49:35;;;;;;;3.10;2.90;;;24.00;39.30;;;;;;10431365;28;20739;-85
2021/06/22 22:54:38;;;;;;;3.50;3.20;;;24.00;39.40;;;;;;10429064;28;20233;-84
2021/06/22 22:59:41;;;;;;;3.20;3.00;;;24.00;39.30;;;;;;10424318;28;20602;-84
2021/06/22 23:04:46;;;;;;;3.83;2.80;;;24.00;39.40;;;;;;10429719;28;20236;-82
2021/06/22 23:09:49;;;;;;;2.93;2.73;;;23.90;39.90;;;;;;10429118;28;20229;-80
2021/06/22 23:14:52;;;;;;;2.90;2.70;;;23.80;39.80;;;;;;10427579;28;20233;-81
2021/06/22 23:19:57;;;;;;;3.50;2.80;;;23.70;39.80;;;;;;10425328;28;20236;-81
2021/06/22 23:25:00;;;;;;;3.60;3.30;;;23.60;40.40;;;;;;10428980;28;20225;-80
2021/06/22 23:30:05;;;;;;;4.30;3.87;;;23.50;40.00;;;;;;10425317;28;20224;-79
2021/06/22 23:35:10;;;;;;;4.03;3.73;;;23.30;40.50;;;;;;10427983;28;20232;-80
2021/06/22 23:40:14;;;;;;;4.47;4.03;;;23.10;41.90;;;;;;10422206;28;20227;-80
2021/06/22 23:45:17;;;;;;;4.37;4.07;;;23.00;41.30;;;;;;10421577;28;20702;-80
2021/06/22 23:50:22;;;;;;;3.70;3.50;;;23.00;41.40;;;;;;10422564;28;20706;-80
2021/06/22 23:55:25;;;;;;;3.97;3.67;;;22.80;42.10;;;;;;10421928;28;20598;-80
